모두
Toowoomba Hospital Airport (Harristown, QLD) YXTO 기상
There is no TAF data available at YXTO. Showing TAF data for YTWB (3 mi 서북).
TWB 터미널 지역 예측(YXTO에 대한 데이터 없음)
| Date | Time (AEST) | Flight Rules | Wind Dir. | Speed | Type | Height AGL (ft) | Visibility | Remarks | ||||||
|---|---|---|---|---|---|---|---|---|---|---|---|---|---|---|
| 04-9월 | 23:00 | VFR | 220° | 8 kt | Clouds and Visibility are OK | >= 6 miles | ||||||||
| 04-9월 | 22:00 | VFR | 220° | 8 kt | Clouds and Visibility are OK | >= 6 miles | ||||||||
| 04-9월 | 21:00 | VFR | 220° | 8 kt | Clouds and Visibility are OK | >= 6 miles | ||||||||
| 04-9월 | 20:00 | VFR | 220° | 8 kt | Clouds and Visibility are OK | >= 6 miles | ||||||||
| 04-9월 | 19:00 | VFR | 220° | 8 kt | Clouds and Visibility are OK | >= 6 miles | ||||||||
| 04-9월 | 18:00 | VFR | 250° | 14 kt | Clouds and Visibility are OK | >= 6 miles | ||||||||
| 04-9월 | 17:00 | VFR | 250° | 14 kt | Clouds and Visibility are OK | >= 6 miles | ||||||||
| 04-9월 | 16:00 | VFR | 250° | 14 kt | Clouds and Visibility are OK | >= 6 miles | ||||||||
| 04-9월 | 15:00 | VFR | 250° | 14 kt | Clouds and Visibility are OK | >= 6 miles | ||||||||
| 04-9월 | 14:00 | VFR | 250° | 14 kt | Clouds and Visibility are OK | >= 6 miles | ||||||||
There is no METAR data available at YXTO. Showing METAR data for YTWB (3 mi 서북).
최근 TWB METAR 이력(YXTO에 대한 데이터 없음)
| Date | Time (AEST) | Flight Rules | Wind Dir. | Speed | Type | Height AGL (ft) | Visibility | Temp (°C) | Temp (°F) | Dew Point (°C) | Dew Point (°F) | Rel. Humid. | Pressure | Density Altitude | Remarks |
|---|---|---|---|---|---|---|---|---|---|---|---|---|---|---|---|
| 04-9월 | 14:00 | VFR | 270° | 11 kt | 10000 meters | 27° | 80° | 5° | 41° | 24% | 1021 mb | 3,771 ft | |||
| 04-9월 | 13:00 | VFR | 310° | 10 kt | 10000 meters | 25° | 77° | 7° | 44° | 32% | 1022 mb | 3,502 ft | |||
| 04-9월 | 12:00 | VFR | 300° | 12 kt | 10000 meters | 25° | 77° | 6° | 42° | 30% | 1023 mb | 3,472 ft | |||
| 04-9월 | 11:00 | VFR | 240° | 10 kt | 10000 meters | 24° | 75° | 8° | 46° | 36% | 1024 mb | 3,322 ft | |||
| 04-9월 | 10:00 | VFR | 260° | 7 kt | 10000 meters | 22° | 71° | 8° | 46° | 41% | 1024 mb | 3,082 ft | |||
| 04-9월 | 09:00 | VFR | 320° | 5 kt | 10000 meters | 21° | 69° | 9° | 48° | 46% | 1025 mb | 2,933 ft | |||
| 04-9월 | 08:00 | VFR | 330° | 5 kt | 10000 meters | 19° | 66° | 8° | 46° | 49% | 1025 mb | 2,693 ft | |||
| 04-9월 | 07:00 | VFR | 350° | 6 kt | 10000 meters | 17° | 62° | 7° | 44° | 52% | 1024 mb | 2,482 ft | |||
| 04-9월 | 06:00 | VFR | 320° | 4 kt | 10000 meters | 15° | 59° | 6° | 42° | 55% | 1023 mb | 2,272 ft | |||
| 04-9월 | 05:00 | VFR | 340° | 6 kt | 10000 meters | 16° | 60° | 6° | 42° | 51% | 1022 mb | 2,422 ft | |||
| 04-9월 | 04:00 | VFR | 340° | 6 kt | 10000 meters | 16° | 60° | 6° | 42° | 51% | 1022 mb | 2,422 ft | |||
| 04-9월 | 03:00 | VFR | 330° | 5 kt | 10000 meters | 15° | 59° | 6° | 42° | 55% | 1021 mb | 2,331 ft | |||
| 04-9월 | 02:00 | VFR | 330° | 6 kt | 10000 meters | 16° | 60° | 5° | 41° | 48% | 1022 mb | 2,422 ft | |||
| 04-9월 | 01:00 | VFR | 310° | 6 kt | 10000 meters | 17° | 62° | 5° | 41° | 45% | 1022 mb | 2,542 ft | |||
| 04-9월 | 00:00 | VFR | 310° | 5 kt | 10000 meters | 18° | 64° | 5° | 41° | 42% | 1022 mb | 2,662 ft | |||
| 03-9월 | 23:00 | VFR | 280° | 5 kt | 10000 meters | 19° | 66° | 5° | 41° | 40% | 1022 mb | 2,782 ft | |||
| 03-9월 | 22:00 | VFR | 270° | 4 kt | 10000 meters | 19° | 66° | 5° | 41° | 40% | 1022 mb | 2,782 ft | |||
| 03-9월 | 21:00 | VFR | 290° | 7 kt | 10000 meters | 20° | 68° | 5° | 41° | 37% | 1022 mb | 2,902 ft | |||
| 03-9월 | 20:00 | VFR | 290° | 7 kt | 10000 meters | 22° | 71° | 5° | 41° | 33% | 1021 mb | 3,171 ft | |||
| 03-9월 | 19:00 | VFR | 290° | 7 kt | 10000 meters | 23° | 73° | 5° | 41° | 31% | 1021 mb | 3,291 ft | |||
| 03-9월 | 18:00 | VFR | 290° | 7 kt | 10000 meters | 24° | 75° | 5° | 41° | 29% | 1020 mb | 3,441 ft | |||
| 03-9월 | 17:00 | VFR | 290° | 11 kt | 10000 meters | 27° | 80° | 5° | 41° | 24% | 1020 mb | 3,801 ft | |||
| 03-9월 | 16:00 | VFR | 290° | 15 kt | 10000 meters | 27° | 80° | 6° | 42° | 26% | 1020 mb | 3,801 ft | |||
| 03-9월 | 15:00 | VFR | 260° | 13 kt | 10000 meters | 27° | 80° | 7° | 44° | 28% | 1020 mb | 3,801 ft |
로그인
| 귀하의 브라우저는 지원되지 않습니다.. 브라우저를 업그레이드하세요 |
